createdAt,value
2016-12-06T00:00:27.283Z,72
2016-12-06T00:01:33.292Z,72
2016-12-06T00:02:39.287Z,72
2016-12-06T00:03:45.288Z,72
2016-12-06T00:04:51.288Z,72
2016-12-06T00:05:57.287Z,72
2016-12-06T00:07:03.279Z,72
2016-12-06T00:08:09.285Z,72
2016-12-06T00:09:15.272Z,72
2016-12-06T00:10:21.274Z,72
2016-12-06T00:11:27.270Z,72
2016-12-06T00:12:33.277Z,72
2016-12-06T00:13:39.281Z,73
2016-12-06T00:14:45.274Z,73
2016-12-06T00:15:51.275Z,73
2016-12-06T00:16:57.289Z,73
2016-12-06T00:18:03.275Z,73
2016-12-06T00:19:09.280Z,73
2016-12-06T00:20:15.274Z,73
2016-12-06T00:21:21.277Z,73
2016-12-06T00:22:27.283Z,73
2016-12-06T00:23:33.285Z,73
2016-12-06T00:24:39.297Z,73
2016-12-06T00:25:45.280Z,73
2016-12-06T00:26:51.294Z,73
2016-12-06T00:27:57.302Z,73
2016-12-06T00:29:03.306Z,73
2016-12-06T00:30:09.309Z,73
2016-12-06T00:31:15.307Z,73
2016-12-06T00:32:21.305Z,73
2016-12-06T00:33:27.310Z,73
2016-12-06T00:34:33.320Z,73
2016-12-06T00:35:39.311Z,73
2016-12-06T00:36:45.314Z,73
2016-12-06T00:37:51.320Z,73
2016-12-06T00:38:57.313Z,73
2016-12-06T00:40:03.306Z,73
2016-12-06T00:41:09.307Z,73
2016-12-06T00:42:15.322Z,73
2016-12-06T00:43:21.326Z,73
2016-12-06T00:44:27.325Z,73
2016-12-06T00:45:33.325Z,73
2016-12-06T00:46:39.325Z,73
2016-12-06T00:47:45.331Z,73
2016-12-06T00:48:51.334Z,73
2016-12-06T00:49:57.332Z,73
2016-12-06T00:51:03.333Z,73
2016-12-06T00:52:09.330Z,73
2016-12-06T00:53:15.374Z,73
2016-12-06T00:54:21.379Z,73
2016-12-06T00:55:27.383Z,73
2016-12-06T00:56:33.376Z,73
2016-12-06T00:57:39.376Z,73
2016-12-06T00:58:45.366Z,73
2016-12-06T00:59:51.377Z,73
2016-12-06T01:00:57.368Z,73
2016-12-06T01:02:12.178Z,73
2016-12-06T01:04:50.259Z,73
2016-12-06T01:06:04.703Z,73
2016-12-06T01:07:12.613Z,73
2016-12-06T01:08:16.023Z,73
2016-12-06T01:09:25.536Z,73
2016-12-06T01:11:53.150Z,73
2016-12-06T01:12:56.261Z,73
2016-12-06T01:14:09.580Z,73
2016-12-06T01:15:32.124Z,73
2016-12-06T01:16:40.364Z,73
2016-12-06T01:17:49.280Z,73
2016-12-06T01:19:00.167Z,73
2016-12-06T01:20:04.148Z,73
2016-12-06T01:21:10.144Z,73
2016-12-06T01:22:16.146Z,73
2016-12-06T01:23:22.158Z,73
2016-12-06T01:24:28.150Z,73
2016-12-06T01:25:34.426Z,73
2016-12-06T01:26:40.364Z,73
2016-12-06T01:27:46.479Z,73
2016-12-06T01:28:52.478Z,73
2016-12-06T01:29:58.554Z,73
2016-12-06T01:31:04.546Z,73
2016-12-06T01:32:10.565Z,73
2016-12-06T01:33:16.566Z,73
2016-12-06T01:34:22.593Z,73
2016-12-06T01:35:28.587Z,73
2016-12-06T01:36:34.620Z,73
2016-12-06T01:37:40.617Z,72
2016-12-06T01:38:46.613Z,73
2016-12-06T01:39:52.615Z,72
2016-12-06T01:40:58.686Z,73
2016-12-06T01:42:04.697Z,73
2016-12-06T01:43:10.740Z,72
2016-12-06T01:44:16.739Z,73
2016-12-06T01:45:22.747Z,73
2016-12-06T01:46:28.758Z,73
2016-12-06T01:47:34.751Z,73
2016-12-06T01:48:40.747Z,73
2016-12-06T01:49:46.789Z,72
2016-12-06T01:50:52.801Z,72
2016-12-06T01:51:58.810Z,72
2016-12-06T01:53:04.808Z,72
2016-12-06T01:54:10.851Z,72
2016-12-06T01:55:16.847Z,72
2016-12-06T01:56:22.856Z,72
2016-12-06T01:57:28.855Z,72
2016-12-06T01:58:34.879Z,71
2016-12-06T01:59:40.878Z,71
2016-12-06T02:00:46.872Z,71
2016-12-06T02:01:52.876Z,71
2016-12-06T02:02:58.881Z,71
2016-12-06T02:04:04.876Z,71
2016-12-06T02:05:11.105Z,71
2016-12-06T02:06:17.107Z,71
2016-12-06T02:07:23.217Z,71
2016-12-06T02:08:29.223Z,71
2016-12-06T02:09:35.216Z,71
2016-12-06T02:10:41.222Z,71
2016-12-06T02:11:47.221Z,71
2016-12-06T02:12:53.222Z,71
2016-12-06T02:13:59.340Z,71
2016-12-06T02:15:05.347Z,71
2016-12-06T02:16:11.346Z,71
2016-12-06T02:17:17.343Z,71
2016-12-06T02:18:23.479Z,71
2016-12-06T02:19:29.477Z,71
2016-12-06T02:20:35.471Z,71
2016-12-06T02:21:41.466Z,71
2016-12-06T02:22:47.476Z,71
2016-12-06T02:23:53.471Z,71
2016-12-06T02:24:59.476Z,71
2016-12-06T02:26:05.481Z,71
2016-12-06T02:27:11.491Z,71
2016-12-06T02:28:17.488Z,71
2016-12-06T02:29:23.495Z,71
2016-12-06T02:30:29.482Z,71
2016-12-06T02:31:35.483Z,71
2016-12-06T02:32:41.497Z,71
2016-12-06T02:33:47.497Z,71
2016-12-06T02:34:53.492Z,71
2016-12-06T02:35:59.493Z,71
2016-12-06T02:37:05.497Z,71
2016-12-06T02:38:11.567Z,71
2016-12-06T02:39:17.564Z,71
2016-12-06T02:40:23.566Z,71
2016-12-06T02:41:29.569Z,71
2016-12-06T02:42:35.559Z,71
2016-12-06T02:43:41.555Z,71
2016-12-06T02:44:47.560Z,71
2016-12-06T02:45:53.564Z,71
2016-12-06T02:46:59.558Z,71
2016-12-06T02:48:05.560Z,71
2016-12-06T02:49:11.563Z,71
2016-12-06T02:50:17.562Z,71
2016-12-06T02:51:23.569Z,71
2016-12-06T02:52:29.567Z,71
2016-12-06T02:53:35.569Z,71
2016-12-06T02:54:41.571Z,71
2016-12-06T02:55:47.577Z,71
2016-12-06T02:56:53.573Z,71
2016-12-06T02:57:59.571Z,71
2016-12-06T02:59:05.567Z,71
2016-12-06T03:00:11.573Z,71
2016-12-06T03:01:17.572Z,71
2016-12-06T03:02:23.566Z,71
2016-12-06T03:03:29.567Z,71
2016-12-06T03:04:35.570Z,71
2016-12-06T03:05:41.568Z,71
2016-12-06T03:06:47.565Z,71
2016-12-06T03:07:53.563Z,71
2016-12-06T03:08:59.575Z,71
2016-12-06T03:10:05.572Z,71
2016-12-06T03:11:11.567Z,71
2016-12-06T03:12:17.574Z,71
2016-12-06T03:13:23.570Z,71
2016-12-06T03:14:29.573Z,71
2016-12-06T03:15:35.579Z,71
2016-12-06T03:16:40.819Z,71
2016-12-06T03:17:46.818Z,71
2016-12-06T03:18:52.822Z,71
2016-12-06T03:19:58.821Z,71
2016-12-06T03:21:04.820Z,71
2016-12-06T03:22:10.825Z,71
2016-12-06T03:23:15.716Z,71
2016-12-06T03:24:21.718Z,71
2016-12-06T03:25:27.711Z,71
2016-12-06T03:26:33.716Z,71
2016-12-06T03:27:39.709Z,71
2016-12-06T03:28:45.711Z,71
2016-12-06T03:29:51.712Z,71
2016-12-06T03:30:57.716Z,71
2016-12-06T03:32:03.708Z,71
2016-12-06T03:33:09.700Z,71
2016-12-06T03:34:15.708Z,71
2016-12-06T03:35:21.706Z,71
2016-12-06T03:36:27.708Z,71
2016-12-06T03:37:33.704Z,71
2016-12-06T03:38:39.708Z,71
2016-12-06T03:39:45.713Z,71
2016-12-06T03:40:51.706Z,71
2016-12-06T03:41:57.704Z,71
2016-12-06T03:43:03.706Z,71
2016-12-06T03:44:09.699Z,71
2016-12-06T03:45:15.695Z,71
2016-12-06T03:46:21.702Z,71
2016-12-06T03:47:27.801Z,71
2016-12-06T03:48:33.795Z,71
2016-12-06T03:49:39.797Z,71
2016-12-06T03:50:45.798Z,71
2016-12-06T03:51:51.788Z,71
2016-12-06T03:52:57.789Z,71
2016-12-06T03:54:03.781Z,71
2016-12-06T03:55:09.789Z,71
2016-12-06T03:56:15.788Z,71
2016-12-06T03:57:21.783Z,71
2016-12-06T03:58:27.779Z,71
2016-12-06T03:59:33.778Z,71
2016-12-06T04:00:39.768Z,71
2016-12-06T04:01:45.772Z,71
2016-12-06T04:02:51.769Z,71
2016-12-06T04:03:57.766Z,71
2016-12-06T04:05:03.760Z,71
2016-12-06T04:06:09.766Z,71
2016-12-06T04:07:15.760Z,71
2016-12-06T04:08:21.765Z,71
2016-12-06T04:09:27.759Z,71
2016-12-06T04:10:33.754Z,71
2016-12-06T04:11:39.753Z,71
2016-12-06T04:12:45.753Z,70
2016-12-06T04:13:51.746Z,70
2016-12-06T04:14:57.748Z,71
2016-12-06T04:16:03.748Z,71
2016-12-06T04:17:09.749Z,70
2016-12-06T04:18:15.744Z,71
2016-12-06T04:19:21.745Z,70
2016-12-06T04:20:27.747Z,70
2016-12-06T04:21:33.745Z,70
2016-12-06T04:22:39.739Z,70
2016-12-06T04:23:45.732Z,70
2016-12-06T04:24:51.734Z,70
2016-12-06T04:25:57.729Z,70
2016-12-06T04:27:03.727Z,70
2016-12-06T04:28:09.732Z,70
2016-12-06T04:29:15.737Z,70
2016-12-06T04:30:21.737Z,70
2016-12-06T04:31:27.731Z,70
2016-12-06T04:32:33.736Z,70
2016-12-06T04:33:39.738Z,70
2016-12-06T04:34:45.737Z,70
2016-12-06T04:35:51.744Z,70
2016-12-06T04:36:57.741Z,70
2016-12-06T04:38:03.741Z,70
2016-12-06T04:39:09.745Z,70
2016-12-06T04:40:15.745Z,70
2016-12-06T04:41:21.745Z,70
2016-12-06T04:42:27.741Z,70
2016-12-06T04:43:33.742Z,70
2016-12-06T04:44:39.737Z,70
2016-12-06T04:45:45.740Z,70
2016-12-06T04:46:51.746Z,71
2016-12-06T04:47:57.743Z,70
2016-12-06T04:49:03.743Z,70
2016-12-06T04:50:09.750Z,71
2016-12-06T04:51:15.744Z,71
2016-12-06T04:52:21.740Z,71
2016-12-06T04:53:27.734Z,71
2016-12-06T04:54:33.742Z,71
2016-12-06T04:55:39.741Z,71
2016-12-06T04:56:45.738Z,71
2016-12-06T04:57:51.738Z,71
2016-12-06T04:58:57.738Z,71
2016-12-06T05:00:03.735Z,71
2016-12-06T05:01:09.737Z,71
2016-12-06T05:02:14.991Z,71
2016-12-06T05:03:21.002Z,71
2016-12-06T05:04:26.991Z,71
2016-12-06T05:05:32.995Z,71
2016-12-06T05:06:39.001Z,71
2016-12-06T05:07:45.001Z,71
2016-12-06T05:08:50.997Z,71
2016-12-06T05:09:56.985Z,71
2016-12-06T05:11:02.992Z,71
2016-12-06T05:12:08.985Z,71
2016-12-06T05:13:14.978Z,71
2016-12-06T05:14:20.985Z,71
2016-12-06T05:15:26.990Z,71
2016-12-06T05:16:32.986Z,71
2016-12-06T05:17:39.080Z,71
2016-12-06T05:18:45.087Z,71
2016-12-06T05:19:51.084Z,71
2016-12-06T05:20:57.089Z,71
2016-12-06T05:22:03.091Z,71
2016-12-06T05:23:09.098Z,71
2016-12-06T05:24:15.090Z,71
2016-12-06T05:25:21.095Z,71
2016-12-06T05:26:27.095Z,71
2016-12-06T05:27:33.104Z,71
2016-12-06T05:28:39.096Z,71
2016-12-06T05:29:45.094Z,71
2016-12-06T05:30:51.096Z,71
2016-12-06T05:31:57.102Z,71
2016-12-06T05:33:03.105Z,71
2016-12-06T05:34:09.103Z,71
2016-12-06T05:35:15.100Z,71
2016-12-06T05:36:21.100Z,71
2016-12-06T05:37:27.098Z,71
2016-12-06T05:38:33.095Z,71
2016-12-06T05:39:39.097Z,71
2016-12-06T05:40:45.095Z,71
2016-12-06T05:41:51.097Z,71
2016-12-06T05:42:57.093Z,71
2016-12-06T05:44:02.353Z,71
2016-12-06T05:45:08.359Z,71
2016-12-06T05:46:14.358Z,71
2016-12-06T05:47:20.360Z,71
2016-12-06T05:48:26.364Z,71
2016-12-06T05:49:32.366Z,71
2016-12-06T05:50:38.359Z,71
2016-12-06T05:51:44.362Z,71
2016-12-06T05:52:50.365Z,71
2016-12-06T05:53:56.363Z,71
2016-12-06T05:55:02.360Z,71
2016-12-06T05:56:08.369Z,71
2016-12-06T05:57:14.371Z,71
2016-12-06T05:58:20.367Z,71
2016-12-06T05:59:26.365Z,71
2016-12-06T06:00:32.367Z,71
2016-12-06T06:01:38.364Z,71
2016-12-06T06:02:44.362Z,71
2016-12-06T06:03:50.359Z,71
2016-12-06T06:04:56.358Z,71
2016-12-06T06:06:02.358Z,71
2016-12-06T06:07:08.361Z,71
2016-12-06T06:08:14.365Z,71
2016-12-06T06:09:20.364Z,71
2016-12-06T06:10:26.363Z,71
2016-12-06T06:11:32.364Z,71
2016-12-06T06:12:38.365Z,71
2016-12-06T06:13:44.369Z,71
2016-12-06T06:14:50.368Z,71
2016-12-06T06:15:56.367Z,71
2016-12-06T06:17:02.366Z,71
2016-12-06T06:18:08.373Z,71
2016-12-06T06:19:14.361Z,71
2016-12-06T06:20:20.355Z,71
2016-12-06T06:21:26.358Z,71
2016-12-06T06:22:32.362Z,71
2016-12-06T06:23:38.355Z,71
2016-12-06T06:24:44.359Z,71
2016-12-06T06:25:50.359Z,71
2016-12-06T06:26:56.364Z,71
2016-12-06T06:28:02.360Z,71
2016-12-06T06:29:08.359Z,71
2016-12-06T06:30:14.367Z,71
2016-12-06T06:31:20.358Z,71
2016-12-06T06:32:26.353Z,71
2016-12-06T06:33:32.359Z,71
2016-12-06T06:34:38.365Z,71
2016-12-06T06:35:44.365Z,71
2016-12-06T06:36:50.366Z,71
2016-12-06T06:37:56.360Z,71
2016-12-06T06:39:02.359Z,71
2016-12-06T06:40:08.347Z,71
2016-12-06T06:41:14.347Z,71
2016-12-06T06:42:20.355Z,71
2016-12-06T06:43:26.356Z,71
2016-12-06T06:44:32.351Z,71
2016-12-06T06:45:38.350Z,71
2016-12-06T06:46:44.361Z,71
2016-12-06T06:47:50.355Z,71
2016-12-06T06:48:56.353Z,71
2016-12-06T06:50:02.352Z,71
2016-12-06T06:51:08.362Z,71
2016-12-06T06:52:14.358Z,70
2016-12-06T06:53:20.363Z,70
2016-12-06T06:54:26.366Z,70
2016-12-06T06:55:32.369Z,70
2016-12-06T06:56:38.370Z,70
2016-12-06T06:57:44.372Z,70
2016-12-06T06:58:50.375Z,71
2016-12-06T06:59:56.371Z,71
2016-12-06T07:01:02.371Z,71
2016-12-06T07:02:08.368Z,71
2016-12-06T07:03:14.361Z,70
2016-12-06T07:04:20.364Z,70
2016-12-06T07:05:26.362Z,70
2016-12-06T07:06:32.357Z,70
2016-12-06T07:07:38.358Z,70
2016-12-06T07:08:44.360Z,70
2016-12-06T07:09:50.357Z,70
2016-12-06T07:10:56.360Z,70
2016-12-06T07:12:02.360Z,70
2016-12-06T07:13:08.364Z,70
2016-12-06T07:14:14.359Z,70
2016-12-06T07:15:20.360Z,70
2016-12-06T07:16:26.360Z,70
2016-12-06T07:17:32.354Z,70
2016-12-06T07:18:38.353Z,70
2016-12-06T07:19:44.352Z,70
2016-12-06T07:20:50.357Z,70
2016-12-06T07:21:56.366Z,71
2016-12-06T07:23:02.365Z,71
2016-12-06T07:24:08.358Z,71
2016-12-06T07:25:14.361Z,71
2016-12-06T07:26:20.361Z,71
2016-12-06T07:27:26.355Z,71
2016-12-06T07:28:32.349Z,71
2016-12-06T07:29:38.358Z,71
2016-12-06T07:30:44.361Z,71
2016-12-06T07:31:50.364Z,71
2016-12-06T07:32:56.355Z,71
2016-12-06T07:34:02.358Z,71
2016-12-06T07:35:08.352Z,71
2016-12-06T07:36:14.354Z,71
2016-12-06T07:37:20.347Z,71
2016-12-06T07:38:26.350Z,71
2016-12-06T07:39:32.350Z,71
2016-12-06T07:40:38.347Z,71
2016-12-06T07:41:44.349Z,71
2016-12-06T07:42:50.356Z,71
2016-12-06T07:43:56.351Z,71
2016-12-06T07:45:02.352Z,71
2016-12-06T07:46:08.358Z,71
2016-12-06T07:47:14.353Z,71
2016-12-06T07:48:20.349Z,71
2016-12-06T07:49:26.344Z,71
2016-12-06T07:50:32.349Z,70
2016-12-06T07:51:38.353Z,70
2016-12-06T07:52:44.348Z,70
2016-12-06T07:53:50.346Z,70
2016-12-06T07:54:56.342Z,71
2016-12-06T07:56:02.339Z,71
2016-12-06T07:57:08.340Z,71
2016-12-06T07:58:14.345Z,71
2016-12-06T07:59:20.351Z,71
2016-12-06T08:00:26.350Z,71
2016-12-06T08:01:32.352Z,71
2016-12-06T08:02:38.349Z,71
2016-12-06T08:03:44.354Z,71
2016-12-06T08:04:50.348Z,71
2016-12-06T08:05:56.346Z,71
2016-12-06T08:07:02.343Z,71
2016-12-06T08:08:08.348Z,71
2016-12-06T08:09:14.343Z,71
2016-12-06T08:10:20.345Z,71
2016-12-06T08:11:26.351Z,71
2016-12-06T08:12:32.357Z,71
2016-12-06T08:13:38.354Z,71
2016-12-06T08:14:44.356Z,71
2016-12-06T08:15:50.364Z,71
2016-12-06T08:16:56.364Z,71
2016-12-06T08:18:02.369Z,71
2016-12-06T08:19:08.371Z,71
2016-12-06T08:20:14.366Z,71
2016-12-06T08:21:20.362Z,71
2016-12-06T08:22:26.365Z,71
2016-12-06T08:23:32.360Z,71
2016-12-06T08:24:38.357Z,71
2016-12-06T08:25:44.354Z,71
2016-12-06T08:26:50.354Z,71
2016-12-06T08:27:56.359Z,71
2016-12-06T08:29:02.368Z,71
2016-12-06T08:30:08.365Z,71
2016-12-06T08:31:14.359Z,71
2016-12-06T08:32:19.614Z,71
2016-12-06T08:33:25.611Z,71
2016-12-06T08:34:31.607Z,71
2016-12-06T08:35:37.609Z,71
2016-12-06T08:36:43.612Z,71
2016-12-06T08:37:49.615Z,71
2016-12-06T08:38:54.868Z,71
2016-12-06T08:40:00.864Z,71
2016-12-06T08:41:06.859Z,71
2016-12-06T08:42:12.872Z,71
2016-12-06T08:43:18.873Z,71
2016-12-06T08:44:24.890Z,71
2016-12-06T08:45:30.879Z,71
2016-12-06T08:46:36.877Z,71
2016-12-06T08:47:42.869Z,71
2016-12-06T08:48:48.876Z,71
2016-12-06T08:49:54.877Z,71
2016-12-06T08:51:00.869Z,71
2016-12-06T08:52:06.869Z,71
2016-12-06T08:53:12.867Z,71
2016-12-06T08:54:18.875Z,72
2016-12-06T08:55:24.866Z,72
2016-12-06T08:56:30.868Z,72
2016-12-06T08:57:36.867Z,72
2016-12-06T08:58:42.876Z,72
2016-12-06T08:59:48.868Z,72
2016-12-06T09:00:54.862Z,72
2016-12-06T09:02:00.865Z,72
2016-12-06T09:03:06.860Z,72
2016-12-06T09:04:12.861Z,72
2016-12-06T09:05:18.854Z,72
2016-12-06T09:06:24.856Z,72
2016-12-06T09:07:30.860Z,73
2016-12-06T09:08:36.864Z,73
2016-12-06T09:09:42.861Z,73
2016-12-06T09:10:48.868Z,73
2016-12-06T09:11:54.868Z,73
2016-12-06T09:13:00.857Z,73
2016-12-06T09:14:06.865Z,73
2016-12-06T09:15:12.855Z,73
2016-12-06T09:16:18.850Z,73
2016-12-06T09:17:24.847Z,73
2016-12-06T09:18:30.853Z,73
2016-12-06T09:19:36.840Z,73
2016-12-06T09:20:42.880Z,73
2016-12-06T09:21:48.882Z,73
2016-12-06T09:22:54.926Z,73
2016-12-06T09:24:00.922Z,73
2016-12-06T09:25:06.917Z,73
2016-12-06T09:26:12.917Z,73
2016-12-06T09:27:17.823Z,74
2016-12-06T09:28:23.820Z,74
2016-12-06T09:29:29.825Z,74
2016-12-06T09:30:35.818Z,74
2016-12-06T09:31:41.846Z,74
2016-12-06T09:32:47.952Z,74
2016-12-06T09:33:52.858Z,73
2016-12-06T09:34:58.898Z,73
2016-12-06T09:36:04.906Z,73
2016-12-06T09:37:10.900Z,73
2016-12-06T09:38:16.903Z,72
2016-12-06T09:39:22.906Z,72
2016-12-06T09:40:28.908Z,72
2016-12-06T09:41:34.158Z,72
2016-12-06T09:42:40.159Z,72
2016-12-06T09:43:46.167Z,72
2016-12-06T09:44:52.182Z,72
2016-12-06T09:45:58.180Z,72
2016-12-06T09:47:04.182Z,72
2016-12-06T09:48:10.182Z,72
2016-12-06T09:49:16.194Z,72
2016-12-06T09:50:22.190Z,72
2016-12-06T09:51:28.196Z,72
2016-12-06T09:52:34.235Z,73
2016-12-06T09:53:40.235Z,73
2016-12-06T09:54:46.231Z,73
2016-12-06T09:55:52.230Z,73
2016-12-06T09:56:58.240Z,74
2016-12-06T09:58:04.237Z,74
2016-12-06T09:59:10.234Z,73
2016-12-06T10:00:16.239Z,74
2016-12-06T10:01:22.238Z,74
2016-12-06T10:02:28.232Z,74
2016-12-06T10:03:34.234Z,73
2016-12-06T10:04:40.236Z,73
2016-12-06T10:05:46.235Z,73
2016-12-06T10:06:52.235Z,73
2016-12-06T10:07:58.243Z,73
2016-12-06T10:09:04.241Z,73
2016-12-06T10:10:10.235Z,73
2016-12-06T10:11:16.239Z,73
2016-12-06T10:12:22.244Z,73
2016-12-06T10:13:28.252Z,73
2016-12-06T10:14:34.243Z,73
2016-12-06T10:15:40.240Z,73
2016-12-06T10:16:46.244Z,73
2016-12-06T10:17:52.251Z,73
2016-12-06T10:18:58.255Z,73
2016-12-06T10:20:04.246Z,73
2016-12-06T10:21:10.242Z,73
2016-12-06T10:22:16.248Z,73
2016-12-06T10:23:22.239Z,73
2016-12-06T10:24:28.247Z,73
2016-12-06T10:25:34.244Z,73
2016-12-06T10:26:40.250Z,73
2016-12-06T10:27:46.243Z,73
2016-12-06T10:28:52.253Z,73
2016-12-06T10:29:58.256Z,73
2016-12-06T10:31:04.242Z,73
2016-12-06T10:32:10.245Z,73
2016-12-06T10:33:16.247Z,73
2016-12-06T10:34:22.251Z,73
2016-12-06T10:35:28.248Z,73
2016-12-06T10:36:34.247Z,73
2016-12-06T10:37:40.252Z,73
2016-12-06T10:38:46.257Z,73
2016-12-06T10:39:52.256Z,73
2016-12-06T10:40:58.253Z,73
2016-12-06T10:42:04.263Z,73
2016-12-06T10:43:10.264Z,73
2016-12-06T10:44:16.258Z,73
2016-12-06T10:45:22.256Z,73
2016-12-06T10:46:28.261Z,73
2016-12-06T10:47:34.260Z,73
2016-12-06T10:48:40.266Z,73
2016-12-06T10:49:46.279Z,73
2016-12-06T10:50:52.281Z,73
2016-12-06T10:51:58.275Z,73
2016-12-06T10:53:04.273Z,73
2016-12-06T10:54:10.274Z,73
2016-12-06T10:55:16.274Z,73
2016-12-06T10:56:22.271Z,73
2016-12-06T10:57:28.275Z,73
2016-12-06T10:58:34.275Z,73
2016-12-06T10:59:39.180Z,73
2016-12-06T11:00:45.177Z,73
2016-12-06T11:01:51.175Z,73
2016-12-06T11:02:57.175Z,73
2016-12-06T11:04:03.177Z,73
2016-12-06T11:05:09.173Z,73
2016-12-06T11:06:15.304Z,73
2016-12-06T11:07:21.584Z,73
2016-12-06T11:08:27.583Z,73
2016-12-06T11:09:33.581Z,73
2016-12-06T11:10:39.585Z,73
2016-12-06T11:11:45.586Z,73
2016-12-06T11:12:51.690Z,73
2016-12-06T11:13:57.688Z,73
2016-12-06T11:15:03.686Z,73
2016-12-06T11:16:09.688Z,73
2016-12-06T11:17:15.683Z,73
2016-12-06T11:18:21.675Z,73
2016-12-06T11:19:27.676Z,73
2016-12-06T11:20:33.669Z,73
2016-12-06T11:21:39.766Z,73
2016-12-06T11:22:45.761Z,73
2016-12-06T11:23:51.763Z,73
2016-12-06T11:24:57.774Z,73
2016-12-06T11:26:03.779Z,73
2016-12-06T11:27:09.769Z,73
2016-12-06T11:28:15.771Z,73
2016-12-06T11:29:21.768Z,73
2016-12-06T11:30:27.764Z,73
2016-12-06T11:31:33.760Z,73
2016-12-06T11:32:39.861Z,73
2016-12-06T11:33:45.860Z,73
2016-12-06T11:34:51.861Z,73
2016-12-06T11:35:57.863Z,73
2016-12-06T11:37:03.866Z,73
2016-12-06T11:38:09.868Z,73
2016-12-06T11:39:15.872Z,73
2016-12-06T11:40:21.871Z,73
2016-12-06T11:41:27.865Z,73
2016-12-06T11:42:33.861Z,73
2016-12-06T11:43:39.859Z,73
2016-12-06T11:44:45.863Z,73
2016-12-06T11:45:51.865Z,73
2016-12-06T11:46:57.857Z,73
2016-12-06T11:48:03.853Z,73
2016-12-06T11:49:09.846Z,73
2016-12-06T11:50:15.853Z,73
2016-12-06T11:51:21.842Z,73
2016-12-06T11:52:27.845Z,73
2016-12-06T11:53:33.849Z,73
2016-12-06T11:54:39.856Z,73
2016-12-06T11:55:45.847Z,73
2016-12-06T11:56:51.852Z,73
2016-12-06T11:57:57.856Z,73
2016-12-06T11:59:03.855Z,73
2016-12-06T12:00:09.853Z,74
2016-12-06T12:01:15.848Z,73
2016-12-06T12:02:21.847Z,73
2016-12-06T12:03:27.841Z,73
2016-12-06T12:04:33.843Z,74
2016-12-06T12:05:39.843Z,74
2016-12-06T12:06:45.842Z,74
2016-12-06T12:07:51.835Z,74
2016-12-06T12:08:57.835Z,74
2016-12-06T12:10:03.846Z,74
2016-12-06T12:11:09.835Z,74
2016-12-06T12:12:15.832Z,74
2016-12-06T12:13:21.832Z,73
2016-12-06T12:14:27.843Z,73
2016-12-06T12:15:33.837Z,73
2016-12-06T12:16:39.842Z,73
2016-12-06T12:17:45.845Z,73
2016-12-06T12:18:51.855Z,73
2016-12-06T12:19:57.847Z,73
2016-12-06T12:21:03.853Z,73
2016-12-06T12:22:09.844Z,73
2016-12-06T12:23:15.852Z,74
2016-12-06T12:24:22.041Z,74
2016-12-06T12:25:28.037Z,74
2016-12-06T12:26:34.036Z,74
2016-12-06T12:27:40.029Z,74
2016-12-06T12:28:46.037Z,74
2016-12-06T12:29:52.033Z,74
2016-12-06T12:30:58.036Z,74
2016-12-06T12:32:04.027Z,74
2016-12-06T12:33:10.027Z,74
2016-12-06T12:34:16.029Z,74
2016-12-06T12:35:22.032Z,74
2016-12-06T12:36:28.034Z,74
2016-12-06T12:37:34.031Z,74
2016-12-06T12:38:40.037Z,74
2016-12-06T12:39:46.039Z,74
2016-12-06T12:40:52.031Z,74
2016-12-06T12:41:58.028Z,74
2016-12-06T12:43:04.033Z,74
2016-12-06T12:44:10.039Z,75
2016-12-06T12:45:16.044Z,75
2016-12-06T12:46:22.046Z,75
2016-12-06T12:47:28.045Z,75
2016-12-06T12:48:34.046Z,75
2016-12-06T12:49:40.041Z,75
2016-12-06T12:50:46.044Z,75
2016-12-06T12:51:52.047Z,75
2016-12-06T12:52:58.037Z,75
2016-12-06T12:54:04.043Z,75
2016-12-06T12:55:10.050Z,75
2016-12-06T12:56:16.048Z,75
2016-12-06T12:57:22.050Z,75
2016-12-06T12:58:28.049Z,75
2016-12-06T12:59:34.043Z,75
2016-12-06T13:00:40.046Z,75
2016-12-06T13:01:46.040Z,75
2016-12-06T13:02:52.039Z,75
2016-12-06T13:03:58.045Z,75
2016-12-06T13:05:04.048Z,75
2016-12-06T13:06:10.050Z,75
2016-12-06T13:07:16.044Z,75
2016-12-06T13:08:22.049Z,75
2016-12-06T13:09:28.058Z,75
2016-12-06T13:10:34.055Z,75
2016-12-06T13:11:40.054Z,75
2016-12-06T13:12:46.058Z,75
2016-12-06T13:13:52.056Z,75
2016-12-06T13:14:58.057Z,75
2016-12-06T13:16:04.054Z,75
2016-12-06T13:17:10.058Z,75
2016-12-06T13:18:16.055Z,75
2016-12-06T13:19:22.047Z,75
2016-12-06T13:20:28.048Z,75
2016-12-06T13:21:34.049Z,75
2016-12-06T13:22:38.960Z,75
2016-12-06T13:23:44.950Z,75
2016-12-06T13:24:50.960Z,75
2016-12-06T13:25:56.959Z,75
2016-12-06T13:27:02.951Z,75
2016-12-06T13:28:08.949Z,75
2016-12-06T13:29:14.952Z,75
2016-12-06T13:30:20.958Z,75
2016-12-06T13:31:26.967Z,75
2016-12-06T13:32:32.962Z,75
2016-12-06T13:33:38.968Z,76
2016-12-06T13:34:44.963Z,76
2016-12-06T13:35:50.953Z,76
2016-12-06T13:36:56.972Z,75
2016-12-06T13:38:02.963Z,75
2016-12-06T13:39:08.966Z,75
2016-12-06T13:40:14.955Z,75
2016-12-06T13:41:20.963Z,75
2016-12-06T13:42:26.960Z,75
2016-12-06T13:43:32.960Z,75
2016-12-06T13:44:38.963Z,75
2016-12-06T13:45:44.969Z,75
2016-12-06T13:46:50.960Z,75
2016-12-06T13:47:56.960Z,75
2016-12-06T13:49:02.966Z,75
2016-12-06T13:50:08.956Z,75
2016-12-06T13:51:14.960Z,75
2016-12-06T13:52:20.207Z,75
2016-12-06T13:53:26.213Z,75
2016-12-06T13:54:32.213Z,75
2016-12-06T13:55:38.204Z,75
2016-12-06T13:56:44.207Z,75
2016-12-06T13:57:50.212Z,76
2016-12-06T13:58:56.197Z,76
2016-12-06T14:00:02.202Z,76
2016-12-06T14:01:07.105Z,76
2016-12-06T14:02:13.109Z,76
2016-12-06T14:03:19.330Z,76
2016-12-06T14:04:25.217Z,76
2016-12-06T14:05:31.218Z,76
2016-12-06T14:06:37.220Z,76
2016-12-06T14:07:43.216Z,76
2016-12-06T14:08:49.214Z,76
2016-12-06T14:09:55.213Z,77
2016-12-06T14:11:01.215Z,77
2016-12-06T14:12:07.212Z,77
2016-12-06T14:13:13.213Z,77
2016-12-06T14:14:19.214Z,77
2016-12-06T14:15:25.211Z,77
2016-12-06T14:16:31.206Z,77
2016-12-06T14:17:37.213Z,78
2016-12-06T14:18:43.211Z,78
2016-12-06T14:19:49.213Z,78
2016-12-06T14:20:55.214Z,78
2016-12-06T14:22:01.213Z,78
2016-12-06T14:23:07.214Z,78
2016-12-06T14:24:13.215Z,78
2016-12-06T14:25:19.216Z,78
2016-12-06T14:26:25.221Z,78
2016-12-06T14:27:31.225Z,78
2016-12-06T14:28:37.228Z,78
2016-12-06T14:29:43.264Z,78
2016-12-06T14:30:49.260Z,78
2016-12-06T14:31:55.268Z,78
2016-12-06T14:33:01.270Z,78
2016-12-06T14:34:07.270Z,78
2016-12-06T14:35:13.564Z,78
2016-12-06T14:36:19.568Z,78
2016-12-06T14:37:25.566Z,78
2016-12-06T14:38:31.569Z,78
2016-12-06T14:39:37.562Z,78
2016-12-06T14:40:43.567Z,78
2016-12-06T14:41:49.564Z,78
2016-12-06T14:42:55.560Z,78
2016-12-06T14:44:01.566Z,78
2016-12-06T14:45:07.568Z,78
2016-12-06T14:46:13.563Z,78
2016-12-06T14:47:19.569Z,78
2016-12-06T14:48:25.559Z,78
2016-12-06T14:49:31.562Z,78
2016-12-06T14:50:37.801Z,78
2016-12-06T14:51:43.797Z,78
2016-12-06T14:52:49.796Z,78
2016-12-06T14:53:55.805Z,78
2016-12-06T14:55:01.801Z,78
2016-12-06T14:56:07.797Z,78
2016-12-06T14:57:13.790Z,78
2016-12-06T14:58:19.804Z,78
2016-12-06T14:59:25.798Z,78
2016-12-06T15:00:31.804Z,78
2016-12-06T15:01:37.802Z,78
2016-12-06T15:02:43.813Z,78
2016-12-06T15:03:49.810Z,78
2016-12-06T15:04:55.809Z,78
2016-12-06T15:06:01.818Z,78
2016-12-06T15:07:07.814Z,78
2016-12-06T15:08:13.819Z,78
2016-12-06T15:09:19.812Z,78
2016-12-06T15:10:25.820Z,78
2016-12-06T15:11:31.836Z,78
2016-12-06T15:12:37.836Z,78
2016-12-06T15:13:43.839Z,78
2016-12-06T15:14:49.840Z,78
2016-12-06T15:15:55.830Z,78
2016-12-06T15:17:01.838Z,78
2016-12-06T15:18:07.829Z,78
2016-12-06T15:19:13.826Z,78
2016-12-06T15:20:19.832Z,78
2016-12-06T15:21:25.834Z,78
2016-12-06T15:22:31.825Z,78
2016-12-06T15:23:37.828Z,78
2016-12-06T15:24:43.832Z,78
2016-12-06T15:25:49.842Z,78
2016-12-06T15:26:55.828Z,78
2016-12-06T15:28:01.826Z,78
2016-12-06T15:29:07.830Z,78
2016-12-06T15:30:13.834Z,78
2016-12-06T15:31:19.848Z,78
2016-12-06T15:32:25.846Z,78
2016-12-06T15:33:31.847Z,78
2016-12-06T15:34:37.844Z,78
2016-12-06T15:35:43.853Z,78
2016-12-06T15:36:49.858Z,78
2016-12-06T15:37:55.861Z,78
2016-12-06T15:39:01.857Z,78
2016-12-06T15:40:07.861Z,78
2016-12-06T15:41:13.858Z,78
2016-12-06T15:42:19.115Z,78
2016-12-06T15:43:25.127Z,78
2016-12-06T15:44:31.118Z,78